Moca, Puerto Rico
Current Conditions -  °F | °C
As of 11:50 AM on Friday 21 Nov 2014 (Local Time) from TJBQ Reporting Station
Broken Clouds Broken Clouds  
Wind Chill: 84°   Ceiling: 3400
Heat Index: 90°   Visibility: 10mi
Dew Point: 72°   Wind: 18mph
Humidity: 66%   Direction: 90°E
Pressure: 30.04"   Gusts: 26mph
Location:  18.39°N, 67.11°W
Report Text: TJBQ 211550Z 09016G23KT 10SM SCT023 BKN034 BKN039 29/22 A3004 RMK RWY08 ATIS U
Loading
Personal Weather Stations






























Interactive Weather Map New forecast layout! Learn more

10-Day Weather Forecast

Advertisements
Track Severe Weather on mobile